createdAt,value
2023-03-16T00:00:52.339Z,0.93
2023-03-16T00:03:21.947Z,0.80
2023-03-16T00:05:50.186Z,0.73
2023-03-16T00:08:18.467Z,0.80
2023-03-16T00:10:48.188Z,0.85
2023-03-16T00:13:19.083Z,0.82
2023-03-16T00:15:57.264Z,0.75
2023-03-16T00:18:27.275Z,0.95
2023-03-16T00:20:55.568Z,0.80
2023-03-16T00:23:27.446Z,0.88
2023-03-16T00:25:59.167Z,0.90
2023-03-16T00:28:27.070Z,1.00
2023-03-16T00:30:58.912Z,1.07
2023-03-16T00:33:26.745Z,0.98
2023-03-16T00:36:02.088Z,1.00
2023-03-16T00:38:32.016Z,0.90
2023-03-16T00:40:58.589Z,0.88
2023-03-16T00:46:13.718Z,1.10
2023-03-16T00:48:42.667Z,1.10
2023-03-16T00:51:15.332Z,1.00
2023-03-16T00:53:44.524Z,1.00
2023-03-16T00:56:12.036Z,0.80
2023-03-16T00:58:40.228Z,0.73
2023-03-16T01:01:10.443Z,0.73
2023-03-16T01:03:37.436Z,0.90
2023-03-16T01:06:06.608Z,0.93
2023-03-16T01:08:33.801Z,1.20
2023-03-16T01:11:10.328Z,0.95
2023-03-16T01:13:38.031Z,1.08
2023-03-16T01:16:05.962Z,1.10
2023-03-16T01:18:36.568Z,1.15
2023-03-16T01:21:05.269Z,1.15
2023-03-16T01:25:59.803Z,0.75
2023-03-16T01:28:30.004Z,0.90
2023-03-16T01:31:02.067Z,0.88
2023-03-16T01:33:29.258Z,1.20
2023-03-16T01:35:58.798Z,1.02
2023-03-16T01:38:25.570Z,1.15
2023-03-16T01:40:53.780Z,1.15
2023-03-16T01:43:24.509Z,1.08
2023-03-16T01:46:07.117Z,1.05
2023-03-16T01:48:39.887Z,0.82
2023-03-16T01:51:21.267Z,0.82
2023-03-16T01:53:53.103Z,0.80
2023-03-16T01:56:25.640Z,0.90
2023-03-16T01:58:58.655Z,0.90
2023-03-16T02:01:27.477Z,1.10
2023-03-16T02:04:02.449Z,0.80
2023-03-16T02:06:29.378Z,0.90
2023-03-16T02:08:57.087Z,0.90
2023-03-16T02:11:24.343Z,1.17
2023-03-16T02:13:52.696Z,0.98
2023-03-16T02:16:20.046Z,1.10
2023-03-16T02:18:47.618Z,0.90
2023-03-16T02:21:28.035Z,0.70
2023-03-16T02:23:54.526Z,0.77
2023-03-16T02:26:24.274Z,0.70
2023-03-16T02:28:53.618Z,0.75
2023-03-16T02:31:20.408Z,0.77
2023-03-16T02:33:48.810Z,1.15
2023-03-16T02:36:15.527Z,0.73
2023-03-16T02:38:41.953Z,0.82
2023-03-16T02:41:17.422Z,0.80
2023-03-16T02:43:53.046Z,1.17
2023-03-16T02:46:22.938Z,0.57
2023-03-16T02:49:06.626Z,0.80
2023-03-16T02:51:33.109Z,0.90
2023-03-16T02:53:59.731Z,0.93
2023-03-16T02:56:26.407Z,0.65
2023-03-16T02:58:52.854Z,0.70
2023-03-16T03:01:19.753Z,0.75
2023-03-16T03:03:46.426Z,0.75
2023-03-16T03:06:12.846Z,0.80
2023-03-16T03:08:39.520Z,0.80
2023-03-16T03:11:06.495Z,0.80
2023-03-16T03:13:33.481Z,0.80
2023-03-16T03:16:00.105Z,0.60
2023-03-16T03:18:26.586Z,0.70
2023-03-16T03:20:53.728Z,0.68
2023-03-16T03:23:20.617Z,0.63
2023-03-16T03:25:48.711Z,0.73
2023-03-16T03:28:15.101Z,0.63
2023-03-16T03:30:41.700Z,0.90
2023-03-16T03:33:08.249Z,0.80
2023-03-16T03:35:35.343Z,0.80
2023-03-16T03:38:01.799Z,0.60
2023-03-16T03:40:28.494Z,0.70
2023-03-16T03:42:55.058Z,0.57
2023-03-16T03:45:21.637Z,0.65
2023-03-16T03:47:48.107Z,0.50
2023-03-16T03:50:15.261Z,0.68
2023-03-16T03:52:42.185Z,0.95
2023-03-16T03:55:09.818Z,0.60
2023-03-16T03:57:37.015Z,0.57
2023-03-16T04:00:09.900Z,0.65
2023-03-16T04:02:36.614Z,0.65
2023-03-16T04:05:03.263Z,0.68
2023-03-16T04:07:29.664Z,0.63
2023-03-16T04:09:56.040Z,1.15
2023-03-16T04:12:22.897Z,0.60
2023-03-16T04:14:49.349Z,0.80
2023-03-16T04:17:15.900Z,0.50
2023-03-16T04:19:42.558Z,0.90
2023-03-16T04:22:09.214Z,0.70
2023-03-16T04:24:36.435Z,0.70
2023-03-16T04:27:03.079Z,0.70
2023-03-16T04:29:29.850Z,1.23
2023-03-16T04:31:56.764Z,0.90
2023-03-16T04:34:26.215Z,1.00
2023-03-16T04:36:53.487Z,2.05
2023-03-16T04:39:20.664Z,1.63
2023-03-16T04:41:47.070Z,1.23
2023-03-16T04:44:13.674Z,0.90
2023-03-16T04:46:40.735Z,0.90
2023-03-16T04:49:09.556Z,0.70
2023-03-16T04:54:05.303Z,0.70
2023-03-16T04:56:32.073Z,0.90
2023-03-16T04:58:58.538Z,1.10
2023-03-16T05:01:25.637Z,1.10
2023-03-16T05:03:52.865Z,0.98
2023-03-16T05:06:19.333Z,0.90
2023-03-16T05:08:45.812Z,0.90
2023-03-16T05:11:12.294Z,0.90
2023-03-16T05:13:38.763Z,1.00
2023-03-16T05:16:05.469Z,0.82
2023-03-16T05:18:33.260Z,0.90
2023-03-16T05:21:00.244Z,0.75
2023-03-16T05:23:26.667Z,0.80
2023-03-16T05:25:53.060Z,0.75
2023-03-16T05:28:19.524Z,0.75
2023-03-16T05:30:46.080Z,1.00
2023-03-16T05:33:13.999Z,0.95
2023-03-16T05:35:40.512Z,1.50
2023-03-16T05:38:07.656Z,1.45
2023-03-16T05:40:34.050Z,1.10
2023-03-16T05:43:00.675Z,1.08
2023-03-16T05:45:28.058Z,1.58
2023-03-16T05:47:54.668Z,1.10
2023-03-16T05:50:21.175Z,1.05
2023-03-16T05:52:48.232Z,1.13
2023-03-16T05:55:16.736Z,1.17
2023-03-16T05:57:44.231Z,1.10
2023-03-16T06:00:15.613Z,1.33
2023-03-16T06:02:47.921Z,1.00
2023-03-16T06:05:15.547Z,1.70
2023-03-16T06:07:42.852Z,1.38
2023-03-16T06:10:09.823Z,1.15
2023-03-16T06:12:36.437Z,1.45
2023-03-16T06:15:07.476Z,1.50
2023-03-16T06:17:37.937Z,1.35
2023-03-16T06:20:11.329Z,1.25
2023-03-16T06:22:39.267Z,1.20
2023-03-16T06:25:07.633Z,1.60
2023-03-16T06:27:34.110Z,1.02
2023-03-16T06:30:01.431Z,1.52
2023-03-16T06:32:28.041Z,1.85
2023-03-16T06:34:54.579Z,1.85
2023-03-16T06:37:21.715Z,1.83
2023-03-16T06:39:48.179Z,1.42
2023-03-16T06:42:14.651Z,1.45
2023-03-16T06:44:41.409Z,1.25
2023-03-16T06:47:08.235Z,1.55
2023-03-16T06:49:36.901Z,2.53
2023-03-16T06:54:32.340Z,1.90
2023-03-16T06:56:58.849Z,1.92
2023-03-16T06:59:25.317Z,1.65
2023-03-16T07:01:51.832Z,1.88
2023-03-16T07:04:18.341Z,1.80
2023-03-16T07:06:44.857Z,1.80
2023-03-16T07:09:12.440Z,1.98
2023-03-16T07:11:40.681Z,1.30
2023-03-16T07:14:07.160Z,1.53
2023-03-16T07:16:33.568Z,1.35
2023-03-16T07:19:00.119Z,1.45
2023-03-16T07:21:26.551Z,1.30
2023-03-16T07:23:53.014Z,1.27
2023-03-16T07:26:19.454Z,1.40
2023-03-16T07:28:45.938Z,1.45
2023-03-16T07:31:12.915Z,1.15
2023-03-16T07:33:40.065Z,1.10
2023-03-16T07:36:09.308Z,1.52
2023-03-16T07:38:36.337Z,1.42
2023-03-16T07:41:02.813Z,1.48
2023-03-16T07:43:29.439Z,1.40
2023-03-16T07:45:56.081Z,1.35
2023-03-16T07:48:23.216Z,0.82
2023-03-16T07:50:50.741Z,1.10
2023-03-16T07:53:17.879Z,1.13
2023-03-16T07:55:44.829Z,1.30
2023-03-16T07:58:12.106Z,1.40
2023-03-16T08:00:39.499Z,1.40
2023-03-16T08:03:06.855Z,1.25
2023-03-16T08:05:33.448Z,1.20
2023-03-16T08:08:01.612Z,0.90
2023-03-16T08:10:28.610Z,1.17
2023-03-16T08:12:55.321Z,1.20
2023-03-16T08:15:21.882Z,1.10
2023-03-16T08:17:49.113Z,1.20
2023-03-16T08:20:15.682Z,1.02
2023-03-16T08:22:46.250Z,1.30
2023-03-16T08:25:14.200Z,1.50
2023-03-16T08:27:42.916Z,1.10
2023-03-16T08:30:12.620Z,1.48
2023-03-16T08:32:40.920Z,1.80
2023-03-16T08:35:09.677Z,2.00
2023-03-16T08:40:05.350Z,1.50
2023-03-16T08:42:32.520Z,1.10
2023-03-16T08:45:00.848Z,1.30
2023-03-16T08:47:27.318Z,1.10
2023-03-16T08:49:53.838Z,1.42
2023-03-16T08:52:20.319Z,1.20
2023-03-16T08:55:01.545Z,1.27
2023-03-16T08:57:29.254Z,1.42
2023-03-16T08:59:55.867Z,1.05
2023-03-16T09:02:22.338Z,0.82
2023-03-16T09:04:49.739Z,0.93
2023-03-16T09:07:16.532Z,0.93
2023-03-16T09:13:06.486Z,0.65
2023-03-16T09:15:32.984Z,0.68
2023-03-16T09:18:00.647Z,0.50
2023-03-16T09:20:30.054Z,0.75
2023-03-16T09:22:57.731Z,0.80
2023-03-16T09:25:25.489Z,0.57
2023-03-16T09:27:52.710Z,0.90
2023-03-16T09:30:19.879Z,0.73
2023-03-16T09:32:48.702Z,0.95
2023-03-16T09:35:15.465Z,0.55
2023-03-16T09:37:45.297Z,0.95
2023-03-16T09:40:30.542Z,0.70
2023-03-16T09:43:19.005Z,0.73
2023-03-16T09:48:20.978Z,1.00
2023-03-16T09:50:49.714Z,0.88
2023-03-16T09:53:29.692Z,1.10
2023-03-16T09:56:04.052Z,0.85
2023-03-16T09:58:32.906Z,0.70
2023-03-16T10:01:09.702Z,1.08
2023-03-16T10:04:07.185Z,1.10
2023-03-16T10:06:41.356Z,1.60
2023-03-16T10:09:36.178Z,1.38
2023-03-16T10:12:06.278Z,1.50
2023-03-16T10:14:48.926Z,1.15
2023-03-16T10:17:21.371Z,0.90
2023-03-16T10:20:01.259Z,1.35
2023-03-16T10:22:33.457Z,0.88
2023-03-16T10:25:29.980Z,0.90
2023-03-16T10:27:57.397Z,0.85
2023-03-16T10:30:33.952Z,1.10
2023-03-16T10:33:03.475Z,0.65
2023-03-16T10:35:51.357Z,0.60
2023-03-16T10:38:38.806Z,1.10
2023-03-16T10:41:17.628Z,0.80
2023-03-16T10:43:45.182Z,0.80
2023-03-16T10:46:14.783Z,0.80
2023-03-16T10:48:42.523Z,0.70
2023-03-16T10:51:15.147Z,1.13
2023-03-16T10:53:44.632Z,0.70
2023-03-16T10:56:25.420Z,0.95
2023-03-16T10:58:52.450Z,0.70
2023-03-16T11:01:28.957Z,1.08
2023-03-16T11:03:57.369Z,0.70
2023-03-16T11:06:31.537Z,0.90
2023-03-16T11:09:10.755Z,0.63
2023-03-16T11:11:37.570Z,0.57
2023-03-16T11:14:12.810Z,0.70
2023-03-16T11:16:43.950Z,0.80
2023-03-16T11:19:49.648Z,0.93
2023-03-16T11:22:25.303Z,0.80
2023-03-16T11:25:07.143Z,0.75
2023-03-16T11:28:01.581Z,0.73
2023-03-16T11:30:36.275Z,0.90
2023-03-16T11:33:04.047Z,0.98
2023-03-16T11:38:44.733Z,1.20
2023-03-16T11:41:16.870Z,0.90
2023-03-16T11:43:57.170Z,0.98
2023-03-16T11:46:29.170Z,0.80
2023-03-16T11:49:10.642Z,0.75
2023-03-16T11:51:52.810Z,0.70
2023-03-16T11:54:48.599Z,0.77
2023-03-16T11:57:39.173Z,1.02
2023-03-16T12:00:30.602Z,0.98
2023-03-16T12:03:03.003Z,0.77
2023-03-16T12:05:39.745Z,1.02
2023-03-16T12:08:54.733Z,0.95
2023-03-16T12:11:53.971Z,0.85
2023-03-16T12:14:27.186Z,1.25
2023-03-16T12:17:03.380Z,0.90
2023-03-16T12:19:56.917Z,0.93
2023-03-16T12:22:30.884Z,0.90
2023-03-16T12:24:57.471Z,1.00
2023-03-16T12:27:32.808Z,1.10
2023-03-16T12:30:09.549Z,0.90
2023-03-16T12:32:46.718Z,0.90
2023-03-16T12:35:37.993Z,0.70
2023-03-16T12:38:25.613Z,0.90
2023-03-16T12:41:11.912Z,0.75
2023-03-16T12:43:58.147Z,0.90
2023-03-16T12:46:36.578Z,1.20
2023-03-16T12:49:06.537Z,0.90
2023-03-16T12:51:35.729Z,0.88
2023-03-16T12:54:04.753Z,1.20
2023-03-16T12:56:43.324Z,0.80
2023-03-16T12:59:17.942Z,1.00
2023-03-16T13:01:53.553Z,0.90
2023-03-16T13:04:39.760Z,0.90
2023-03-16T13:07:10.030Z,0.80
2023-03-16T13:09:42.300Z,1.05
2023-03-16T13:12:10.472Z,0.82
2023-03-16T13:14:43.197Z,1.17
2023-03-16T13:17:15.638Z,1.77
2023-03-16T13:19:58.617Z,1.33
2023-03-16T13:22:31.360Z,0.70
2023-03-16T13:25:18.083Z,1.00
2023-03-16T13:27:47.820Z,0.90
2023-03-16T13:30:19.756Z,1.10
2023-03-16T13:32:47.709Z,1.02
2023-03-16T13:35:16.574Z,1.00
2023-03-16T13:37:44.284Z,0.98
2023-03-16T13:40:29.257Z,0.80
2023-03-16T13:42:58.643Z,1.00
2023-03-16T13:45:32.770Z,1.08
2023-03-16T13:48:01.844Z,1.00
2023-03-16T13:50:32.467Z,0.95
2023-03-16T13:53:04.128Z,0.90
2023-03-16T13:55:37.277Z,0.82
2023-03-16T13:58:05.073Z,0.93
2023-03-16T14:03:38.688Z,0.95
2023-03-16T14:06:07.143Z,0.90
2023-03-16T14:08:34.058Z,0.90
2023-03-16T14:11:01.813Z,1.60
2023-03-16T14:13:29.005Z,1.08
2023-03-16T14:15:57.931Z,1.08
2023-03-16T14:18:32.083Z,1.13
2023-03-16T14:20:58.607Z,1.20
2023-03-16T14:23:36.429Z,0.95
2023-03-16T14:26:06.464Z,1.10
2023-03-16T14:28:34.247Z,1.10
2023-03-16T14:33:42.590Z,1.35
2023-03-16T14:36:14.478Z,1.20
2023-03-16T14:38:43.108Z,1.20
2023-03-16T14:41:18.588Z,1.20
2023-03-16T14:43:48.042Z,1.10
2023-03-16T14:46:22.860Z,1.00
2023-03-16T14:48:50.524Z,1.10
2023-03-16T14:53:43.552Z,1.30
2023-03-16T14:56:13.603Z,1.35
2023-03-16T14:58:41.186Z,1.40
2023-03-16T15:01:19.197Z,1.48
2023-03-16T15:03:46.681Z,1.40
2023-03-16T15:06:13.328Z,1.40
2023-03-16T15:08:44.551Z,1.58
2023-03-16T15:11:11.437Z,1.08
2023-03-16T15:13:40.696Z,0.95
2023-03-16T15:16:11.395Z,1.10
2023-03-16T15:18:42.188Z,1.17
2023-03-16T15:21:18.136Z,1.40
2023-03-16T15:23:45.336Z,1.80
2023-03-16T15:26:14.153Z,1.15
2023-03-16T15:28:40.988Z,0.90
2023-03-16T15:31:08.039Z,1.10
2023-03-16T15:33:35.527Z,1.25
2023-03-16T15:38:33.349Z,1.00
2023-03-16T15:41:00.418Z,1.60
2023-03-16T15:43:30.086Z,1.55
2023-03-16T15:45:58.791Z,1.92
2023-03-16T15:48:25.741Z,1.77
2023-03-16T15:50:58.221Z,1.63
2023-03-16T15:53:30.964Z,1.83
2023-03-16T15:56:05.134Z,1.67
2023-03-16T15:58:33.999Z,1.55
2023-03-16T16:01:02.649Z,1.70
2023-03-16T16:03:29.283Z,1.63
2023-03-16T16:05:55.731Z,1.55
2023-03-16T16:08:22.344Z,1.80
2023-03-16T16:10:50.268Z,1.80
2023-03-16T16:13:21.394Z,1.55
2023-03-16T16:15:47.973Z,1.88
2023-03-16T16:18:37.345Z,2.08
2023-03-16T16:21:05.963Z,1.95
2023-03-16T16:23:33.456Z,2.05
2023-03-16T16:26:03.027Z,1.80
2023-03-16T16:28:32.957Z,2.30
2023-03-16T16:31:03.416Z,1.80
2023-03-16T16:33:32.494Z,2.00
2023-03-16T16:36:04.526Z,1.80
2023-03-16T16:38:32.582Z,1.63
2023-03-16T16:41:07.021Z,1.60
2023-03-16T16:43:49.106Z,1.73
2023-03-16T16:46:18.821Z,1.50
2023-03-16T16:48:53.685Z,1.60
2023-03-16T16:51:26.126Z,1.77
2023-03-16T16:53:57.774Z,1.15
2023-03-16T16:56:31.231Z,1.52
2023-03-16T16:58:59.279Z,1.55
2023-03-16T17:01:29.148Z,1.50
2023-03-16T17:03:56.631Z,2.05
2023-03-16T17:06:23.340Z,2.40
2023-03-16T17:08:50.340Z,2.03
2023-03-16T17:11:24.535Z,2.17
2023-03-16T17:13:52.701Z,1.77
2023-03-16T17:16:23.447Z,1.50
2023-03-16T17:18:50.209Z,1.80
2023-03-16T17:21:19.804Z,1.83
2023-03-16T17:23:47.907Z,2.53
2023-03-16T17:26:19.361Z,2.58
2023-03-16T17:28:50.460Z,2.75
2023-03-16T17:31:21.580Z,2.70
2023-03-16T17:33:55.952Z,4.90
2023-03-16T17:36:22.710Z,2.65
2023-03-16T17:38:51.530Z,2.35
2023-03-16T17:41:23.986Z,2.55
2023-03-16T17:43:56.837Z,2.80
2023-03-16T17:46:26.917Z,2.60
2023-03-16T17:48:55.561Z,2.65
2023-03-16T17:53:51.298Z,2.65
2023-03-16T17:56:26.732Z,2.75
2023-03-16T17:58:57.184Z,2.45
2023-03-16T18:01:32.460Z,2.80
2023-03-16T18:04:00.066Z,2.65
2023-03-16T18:06:29.070Z,2.60
2023-03-16T18:08:57.385Z,2.63
2023-03-16T18:11:35.526Z,2.42
2023-03-16T18:14:04.304Z,2.58
2023-03-16T18:16:31.314Z,2.40
2023-03-16T18:19:05.791Z,3.20
2023-03-16T18:21:34.671Z,3.22
2023-03-16T18:24:01.133Z,3.00
2023-03-16T18:26:30.541Z,3.05
2023-03-16T18:28:57.899Z,2.67
2023-03-16T18:31:27.809Z,2.55
2023-03-16T18:34:00.674Z,3.40
2023-03-16T18:36:30.961Z,4.10
2023-03-16T18:39:00.442Z,11.48
2023-03-16T18:41:29.294Z,12.35
2023-03-16T18:44:02.233Z,7.13
2023-03-16T18:46:36.159Z,4.88
2023-03-16T18:49:09.800Z,5.22
2023-03-16T18:51:37.664Z,4.40
2023-03-16T18:54:07.272Z,5.67
2023-03-16T18:56:34.108Z,10.00
2023-03-16T18:59:00.693Z,6.07
2023-03-16T19:01:30.135Z,6.10
2023-03-16T19:03:58.736Z,9.88
2023-03-16T19:06:30.099Z,8.07
2023-03-16T19:09:13.939Z,8.32
2023-03-16T19:11:43.620Z,6.80
2023-03-16T19:14:30.607Z,7.00
2023-03-16T19:16:58.182Z,5.45
2023-03-16T19:19:24.980Z,5.90
2023-03-16T19:22:05.624Z,4.78
2023-03-16T19:24:40.645Z,4.60
2023-03-16T19:27:26.271Z,4.93
2023-03-16T19:29:54.636Z,6.65
2023-03-16T19:32:22.349Z,6.47
2023-03-16T19:34:50.631Z,7.85
2023-03-16T19:37:22.287Z,6.60
2023-03-16T19:39:49.015Z,5.55
2023-03-16T19:42:27.541Z,5.55
2023-03-16T19:44:54.208Z,5.30
2023-03-16T19:47:29.175Z,6.25
2023-03-16T19:49:56.681Z,5.78
2023-03-16T19:52:23.251Z,5.45
2023-03-16T19:54:49.714Z,5.15
2023-03-16T19:57:19.258Z,5.32
2023-03-16T19:59:56.402Z,5.03
2023-03-16T20:02:38.303Z,5.95
2023-03-16T20:05:05.628Z,5.57
2023-03-16T20:07:38.633Z,6.05
2023-03-16T20:10:07.238Z,4.75
2023-03-16T20:15:01.952Z,5.15
2023-03-16T20:17:30.220Z,4.50
2023-03-16T20:19:57.377Z,5.03
2023-03-16T20:22:27.517Z,5.35
2023-03-16T20:24:54.789Z,6.50
2023-03-16T20:27:22.934Z,5.50
2023-03-16T20:29:50.663Z,4.28
2023-03-16T20:32:24.506Z,4.53
2023-03-16T20:34:52.123Z,11.98
2023-03-16T20:37:23.852Z,6.65
2023-03-16T20:39:55.258Z,4.20
2023-03-16T20:42:25.802Z,5.25
2023-03-16T20:44:52.746Z,4.32
2023-03-16T20:47:22.804Z,4.55
2023-03-16T20:49:54.129Z,4.30
2023-03-16T20:52:23.533Z,4.63
2023-03-16T20:54:51.064Z,4.40
2023-03-16T20:57:23.474Z,4.38
2023-03-16T20:59:54.418Z,5.45
2023-03-16T21:02:27.202Z,5.68
2023-03-16T21:04:55.034Z,5.55
2023-03-16T21:07:21.936Z,4.80
2023-03-16T21:09:50.463Z,4.28
2023-03-16T21:12:25.014Z,4.65
2023-03-16T21:14:52.105Z,4.20
2023-03-16T21:17:33.293Z,4.30
2023-03-16T21:20:00.752Z,4.45
2023-03-16T21:22:31.207Z,4.40
2023-03-16T21:24:58.290Z,4.40
2023-03-16T21:27:26.615Z,4.63
2023-03-16T21:29:54.963Z,4.55
2023-03-16T21:32:24.434Z,4.30
2023-03-16T21:34:51.522Z,9.20
2023-03-16T21:37:20.913Z,5.80
2023-03-16T21:39:52.184Z,4.80
2023-03-16T21:42:19.494Z,9.05
2023-03-16T21:44:46.439Z,3.95
2023-03-16T21:47:22.544Z,5.60
2023-03-16T21:49:49.606Z,4.00
2023-03-16T21:52:27.412Z,3.55
2023-03-16T21:54:55.664Z,7.60
2023-03-16T21:57:23.244Z,23.98
2023-03-16T21:59:51.259Z,6.53
2023-03-16T22:02:24.753Z,4.80
2023-03-16T22:04:52.923Z,6.53
2023-03-16T22:07:21.722Z,4.43
2023-03-16T22:09:48.626Z,5.05
2023-03-16T22:12:16.372Z,11.05
2023-03-16T22:14:42.891Z,3.10
2023-03-16T22:17:21.771Z,3.50
2023-03-16T22:19:48.378Z,3.30
2023-03-16T22:22:16.846Z,3.97
2023-03-16T22:24:43.521Z,4.97
2023-03-16T22:27:18.467Z,4.78
2023-03-16T22:29:45.023Z,2.80
2023-03-16T22:32:18.072Z,3.13
2023-03-16T22:34:51.155Z,3.40
2023-03-16T22:37:23.192Z,3.30
2023-03-16T22:39:50.374Z,2.80
2023-03-16T22:42:19.517Z,2.70
2023-03-16T22:44:46.063Z,2.35
2023-03-16T22:47:32.552Z,2.95
2023-03-16T22:49:59.234Z,2.75
2023-03-16T22:52:32.821Z,2.63
2023-03-16T22:55:02.525Z,2.33
2023-03-16T22:57:30.584Z,2.80
2023-03-16T22:59:57.861Z,2.28
2023-03-16T23:02:26.304Z,2.60
2023-03-16T23:04:53.311Z,2.47
2023-03-16T23:07:20.428Z,2.67
2023-03-16T23:09:48.442Z,2.70
2023-03-16T23:12:19.097Z,2.25
2023-03-16T23:14:45.721Z,2.08
2023-03-16T23:17:22.202Z,2.33
2023-03-16T23:19:48.936Z,4.53
2023-03-16T23:22:15.997Z,2.40
2023-03-16T23:24:43.459Z,2.95
2023-03-16T23:27:19.169Z,3.30
2023-03-16T23:29:46.169Z,2.78
2023-03-16T23:32:14.191Z,3.28
2023-03-16T23:34:40.670Z,2.60
2023-03-16T23:37:08.500Z,12.23
2023-03-16T23:39:34.948Z,2.63
2023-03-16T23:42:02.632Z,9.68
2023-03-16T23:44:30.306Z,6.03
2023-03-16T23:46:57.051Z,4.25
2023-03-16T23:49:32.473Z,8.93
2023-03-16T23:52:01.967Z,5.22
2023-03-16T23:54:30.989Z,4.95
2023-03-16T23:56:58.477Z,2.92
2023-03-16T23:59:26.526Z,2.17
